sensor_id;sensor_type;location;lat;lon;timestamp;temperature;humidity
14471;DHT22;7321;50.802;4.336;2023-05-16T00:00:28;10.40;99.90
14471;DHT22;7321;50.802;4.336;2023-05-16T00:03:00;10.40;99.90
14471;DHT22;7321;50.802;4.336;2023-05-16T00:05:27;10.40;99.90
14471;DHT22;7321;50.802;4.336;2023-05-16T00:07:54;10.30;99.90
14471;DHT22;7321;50.802;4.336;2023-05-16T00:10:19;10.20;99.90
14471;DHT22;7321;50.802;4.336;2023-05-16T00:12:46;10.20;99.90
14471;DHT22;7321;50.802;4.336;2023-05-16T00:15:17;10.10;99.90
14471;DHT22;7321;50.802;4.336;2023-05-16T00:17:42;10.10;99.90
14471;DHT22;7321;50.802;4.336;2023-05-16T00:20:13;10.00;99.90
14471;DHT22;7321;50.802;4.336;2023-05-16T00:22:42;10.00;99.90
14471;DHT22;7321;50.802;4.336;2023-05-16T00:25:08;9.80;99.90
14471;DHT22;7321;50.802;4.336;2023-05-16T00:27:35;9.80;99.90
14471;DHT22;7321;50.802;4.336;2023-05-16T00:30:03;9.90;99.90
14471;DHT22;7321;50.802;4.336;2023-05-16T00:32:29;9.90;99.90
14471;DHT22;7321;50.802;4.336;2023-05-16T00:34:55;9.90;99.90
14471;DHT22;7321;50.802;4.336;2023-05-16T00:37:21;9.90;99.90
14471;DHT22;7321;50.802;4.336;2023-05-16T00:39:47;9.90;99.90
14471;DHT22;7321;50.802;4.336;2023-05-16T00:42:13;10.00;99.90
14471;DHT22;7321;50.802;4.336;2023-05-16T00:44:39;10.00;99.90
14471;DHT22;7321;50.802;4.336;2023-05-16T00:47:05;9.90;99.90
14471;DHT22;7321;50.802;4.336;2023-05-16T00:49:30;9.90;99.90
14471;DHT22;7321;50.802;4.336;2023-05-16T00:51:57;9.60;99.90
14471;DHT22;7321;50.802;4.336;2023-05-16T00:54:25;9.50;99.90
14471;DHT22;7321;50.802;4.336;2023-05-16T00:56:54;9.40;99.90
14471;DHT22;7321;50.802;4.336;2023-05-16T00:59:21;9.40;99.90
14471;DHT22;7321;50.802;4.336;2023-05-16T01:01:47;9.50;99.90
14471;DHT22;7321;50.802;4.336;2023-05-16T01:04:16;9.50;99.90
14471;DHT22;7321;50.802;4.336;2023-05-16T01:06:42;9.60;99.90
14471;DHT22;7321;50.802;4.336;2023-05-16T01:09:09;9.60;99.90
14471;DHT22;7321;50.802;4.336;2023-05-16T01:16:47;9.50;99.90
14471;DHT22;7321;50.802;4.336;2023-05-16T01:22:40;9.60;99.90
14471;DHT22;7321;50.802;4.336;2023-05-16T01:28:15;9.60;99.90
14471;DHT22;7321;50.802;4.336;2023-05-16T01:30:42;9.60;99.90
14471;DHT22;7321;50.802;4.336;2023-05-16T01:33:08;9.60;99.90
14471;DHT22;7321;50.802;4.336;2023-05-16T01:35:57;9.40;99.90
14471;DHT22;7321;50.802;4.336;2023-05-16T01:38:29;9.50;99.90
14471;DHT22;7321;50.802;4.336;2023-05-16T01:43:42;9.50;99.90
14471;DHT22;7321;50.802;4.336;2023-05-16T01:46:13;9.50;99.90
14471;DHT22;7321;50.802;4.336;2023-05-16T01:51:20;9.60;99.90
14471;DHT22;7321;50.802;4.336;2023-05-16T01:53:49;9.50;99.90
14471;DHT22;7321;50.802;4.336;2023-05-16T01:56:15;9.40;99.90
14471;DHT22;7321;50.802;4.336;2023-05-16T01:58:42;9.40;99.90
14471;DHT22;7321;50.802;4.336;2023-05-16T02:01:08;9.40;99.90
14471;DHT22;7321;50.802;4.336;2023-05-16T02:03:34;9.40;99.90
14471;DHT22;7321;50.802;4.336;2023-05-16T02:06:00;9.40;99.90
14471;DHT22;7321;50.802;4.336;2023-05-16T02:08:27;9.40;99.90
14471;DHT22;7321;50.802;4.336;2023-05-16T02:10:53;9.50;99.90
14471;DHT22;7321;50.802;4.336;2023-05-16T02:13:19;9.30;99.90
14471;DHT22;7321;50.802;4.336;2023-05-16T02:15:45;9.40;99.90
14471;DHT22;7321;50.802;4.336;2023-05-16T02:18:11;9.50;99.90
14471;DHT22;7321;50.802;4.336;2023-05-16T02:20:37;9.60;99.90
14471;DHT22;7321;50.802;4.336;2023-05-16T02:23:04;9.60;99.90
14471;DHT22;7321;50.802;4.336;2023-05-16T02:25:30;9.60;99.90
14471;DHT22;7321;50.802;4.336;2023-05-16T02:27:56;9.60;99.90
14471;DHT22;7321;50.802;4.336;2023-05-16T02:30:21;9.60;99.90
14471;DHT22;7321;50.802;4.336;2023-05-16T02:32:47;9.50;99.90
14471;DHT22;7321;50.802;4.336;2023-05-16T02:35:13;9.50;99.90
14471;DHT22;7321;50.802;4.336;2023-05-16T02:37:40;9.50;99.90
14471;DHT22;7321;50.802;4.336;2023-05-16T02:40:06;9.50;99.90
14471;DHT22;7321;50.802;4.336;2023-05-16T02:42:32;9.40;99.90
14471;DHT22;7321;50.802;4.336;2023-05-16T02:44:58;9.40;99.90
14471;DHT22;7321;50.802;4.336;2023-05-16T02:47:24;9.40;99.90
14471;DHT22;7321;50.802;4.336;2023-05-16T02:49:50;9.40;99.90
14471;DHT22;7321;50.802;4.336;2023-05-16T02:52:19;9.50;99.90
14471;DHT22;7321;50.802;4.336;2023-05-16T02:54:45;9.50;99.90
14471;DHT22;7321;50.802;4.336;2023-05-16T02:57:11;9.50;99.90
14471;DHT22;7321;50.802;4.336;2023-05-16T02:59:37;9.60;99.90
14471;DHT22;7321;50.802;4.336;2023-05-16T03:02:03;9.70;99.90
14471;DHT22;7321;50.802;4.336;2023-05-16T03:04:29;9.60;99.90
14471;DHT22;7321;50.802;4.336;2023-05-16T03:06:56;9.70;99.90
14471;DHT22;7321;50.802;4.336;2023-05-16T03:09:22;9.80;99.90
14471;DHT22;7321;50.802;4.336;2023-05-16T03:11:48;9.70;99.90
14471;DHT22;7321;50.802;4.336;2023-05-16T03:14:14;9.70;99.90
14471;DHT22;7321;50.802;4.336;2023-05-16T03:16:40;9.60;99.90
14471;DHT22;7321;50.802;4.336;2023-05-16T03:19:08;9.60;99.90
14471;DHT22;7321;50.802;4.336;2023-05-16T03:21:35;9.70;99.90
14471;DHT22;7321;50.802;4.336;2023-05-16T03:24:02;9.70;99.90
14471;DHT22;7321;50.802;4.336;2023-05-16T03:26:28;9.70;99.90
14471;DHT22;7321;50.802;4.336;2023-05-16T03:28:54;9.80;99.90
14471;DHT22;7321;50.802;4.336;2023-05-16T03:31:20;9.80;99.90
14471;DHT22;7321;50.802;4.336;2023-05-16T03:33:46;9.70;99.90
14471;DHT22;7321;50.802;4.336;2023-05-16T03:36:12;9.70;99.90
14471;DHT22;7321;50.802;4.336;2023-05-16T03:38:38;9.60;99.90
14471;DHT22;7321;50.802;4.336;2023-05-16T03:41:04;9.70;99.90
14471;DHT22;7321;50.802;4.336;2023-05-16T03:43:29;9.70;99.90
14471;DHT22;7321;50.802;4.336;2023-05-16T03:45:55;9.80;99.90
14471;DHT22;7321;50.802;4.336;2023-05-16T03:48:21;10.00;99.90
14471;DHT22;7321;50.802;4.336;2023-05-16T03:50:47;10.00;99.90
14471;DHT22;7321;50.802;4.336;2023-05-16T03:53:13;9.90;99.90
14471;DHT22;7321;50.802;4.336;2023-05-16T03:55:38;9.80;99.90
14471;DHT22;7321;50.802;4.336;2023-05-16T03:58:04;9.50;99.90
14471;DHT22;7321;50.802;4.336;2023-05-16T04:00:30;9.30;99.90
14471;DHT22;7321;50.802;4.336;2023-05-16T04:02:56;9.20;99.90
14471;DHT22;7321;50.802;4.336;2023-05-16T04:05:22;9.10;99.90
14471;DHT22;7321;50.802;4.336;2023-05-16T04:07:48;9.00;99.90
14471;DHT22;7321;50.802;4.336;2023-05-16T04:10:14;9.00;99.90
14471;DHT22;7321;50.802;4.336;2023-05-16T04:12:40;9.00;99.90
14471;DHT22;7321;50.802;4.336;2023-05-16T04:15:06;9.20;99.90
14471;DHT22;7321;50.802;4.336;2023-05-16T04:17:32;9.10;99.90
14471;DHT22;7321;50.802;4.336;2023-05-16T04:19:58;9.10;99.90
14471;DHT22;7321;50.802;4.336;2023-05-16T04:22:25;9.20;99.90
14471;DHT22;7321;50.802;4.336;2023-05-16T04:24:52;9.10;99.90
14471;DHT22;7321;50.802;4.336;2023-05-16T04:27:17;9.10;99.90
14471;DHT22;7321;50.802;4.336;2023-05-16T04:29:43;9.20;99.90
14471;DHT22;7321;50.802;4.336;2023-05-16T04:32:09;9.10;99.90
14471;DHT22;7321;50.802;4.336;2023-05-16T04:34:35;9.10;99.90
14471;DHT22;7321;50.802;4.336;2023-05-16T04:37:03;9.10;99.90
14471;DHT22;7321;50.802;4.336;2023-05-16T04:39:30;9.20;99.90
14471;DHT22;7321;50.802;4.336;2023-05-16T04:41:56;9.30;99.90
14471;DHT22;7321;50.802;4.336;2023-05-16T04:44:24;9.30;99.90
14471;DHT22;7321;50.802;4.336;2023-05-16T04:46:51;9.30;99.90
14471;DHT22;7321;50.802;4.336;2023-05-16T04:49:20;9.30;99.90
14471;DHT22;7321;50.802;4.336;2023-05-16T04:51:47;9.20;99.90
14471;DHT22;7321;50.802;4.336;2023-05-16T04:54:13;9.20;99.90
14471;DHT22;7321;50.802;4.336;2023-05-16T04:56:39;9.20;99.90
14471;DHT22;7321;50.802;4.336;2023-05-16T04:59:05;9.30;99.90
14471;DHT22;7321;50.802;4.336;2023-05-16T05:01:30;9.40;99.90
14471;DHT22;7321;50.802;4.336;2023-05-16T05:03:56;9.30;99.90
14471;DHT22;7321;50.802;4.336;2023-05-16T05:06:22;9.50;99.90
14471;DHT22;7321;50.802;4.336;2023-05-16T05:08:48;9.70;99.90
14471;DHT22;7321;50.802;4.336;2023-05-16T05:11:14;9.90;99.90
14471;DHT22;7321;50.802;4.336;2023-05-16T05:13:40;10.10;99.90
14471;DHT22;7321;50.802;4.336;2023-05-16T05:16:06;10.00;99.90
14471;DHT22;7321;50.802;4.336;2023-05-16T05:18:32;10.10;99.90
14471;DHT22;7321;50.802;4.336;2023-05-16T05:20:59;10.20;99.90
14471;DHT22;7321;50.802;4.336;2023-05-16T05:23:25;10.30;99.90
14471;DHT22;7321;50.802;4.336;2023-05-16T05:25:51;10.30;99.90
14471;DHT22;7321;50.802;4.336;2023-05-16T05:28:16;10.30;99.90
14471;DHT22;7321;50.802;4.336;2023-05-16T05:30:42;10.30;99.90
14471;DHT22;7321;50.802;4.336;2023-05-16T05:33:10;10.00;99.90
14471;DHT22;7321;50.802;4.336;2023-05-16T05:35:36;10.20;99.90
14471;DHT22;7321;50.802;4.336;2023-05-16T05:38:02;10.30;99.90
14471;DHT22;7321;50.802;4.336;2023-05-16T05:40:28;10.30;99.90
14471;DHT22;7321;50.802;4.336;2023-05-16T05:42:54;10.30;99.90
14471;DHT22;7321;50.802;4.336;2023-05-16T05:45:20;10.30;99.90
14471;DHT22;7321;50.802;4.336;2023-05-16T05:47:46;10.30;99.90
14471;DHT22;7321;50.802;4.336;2023-05-16T05:50:12;10.40;99.90
14471;DHT22;7321;50.802;4.336;2023-05-16T05:52:39;10.50;99.90
14471;DHT22;7321;50.802;4.336;2023-05-16T05:55:05;10.50;99.90
14471;DHT22;7321;50.802;4.336;2023-05-16T05:57:31;10.60;99.90
14471;DHT22;7321;50.802;4.336;2023-05-16T05:59:57;10.40;99.90
14471;DHT22;7321;50.802;4.336;2023-05-16T06:02:22;10.40;99.90
14471;DHT22;7321;50.802;4.336;2023-05-16T06:04:48;10.50;99.90
14471;DHT22;7321;50.802;4.336;2023-05-16T06:07:14;10.60;99.90
14471;DHT22;7321;50.802;4.336;2023-05-16T06:09:41;10.70;99.90
14471;DHT22;7321;50.802;4.336;2023-05-16T06:12:08;10.90;99.90
14471;DHT22;7321;50.802;4.336;2023-05-16T06:14:34;11.00;99.90
14471;DHT22;7321;50.802;4.336;2023-05-16T06:17:00;11.00;99.90
14471;DHT22;7321;50.802;4.336;2023-05-16T06:19:26;11.00;99.90
14471;DHT22;7321;50.802;4.336;2023-05-16T06:21:51;11.00;99.90
14471;DHT22;7321;50.802;4.336;2023-05-16T06:24:17;11.10;99.90
14471;DHT22;7321;50.802;4.336;2023-05-16T06:26:43;11.20;99.90
14471;DHT22;7321;50.802;4.336;2023-05-16T06:29:14;11.20;99.90
14471;DHT22;7321;50.802;4.336;2023-05-16T06:31:40;11.20;99.90
14471;DHT22;7321;50.802;4.336;2023-05-16T06:34:06;11.10;99.90
14471;DHT22;7321;50.802;4.336;2023-05-16T06:36:32;11.00;99.90
14471;DHT22;7321;50.802;4.336;2023-05-16T06:38:57;11.10;99.90
14471;DHT22;7321;50.802;4.336;2023-05-16T06:41:23;11.10;99.90
14471;DHT22;7321;50.802;4.336;2023-05-16T06:43:51;11.20;99.90
14471;DHT22;7321;50.802;4.336;2023-05-16T06:46:17;11.20;99.90
14471;DHT22;7321;50.802;4.336;2023-05-16T06:48:42;11.50;99.90
14471;DHT22;7321;50.802;4.336;2023-05-16T06:51:09;11.50;99.90
14471;DHT22;7321;50.802;4.336;2023-05-16T06:53:34;11.40;99.90
14471;DHT22;7321;50.802;4.336;2023-05-16T06:56:04;11.40;99.90
14471;DHT22;7321;50.802;4.336;2023-05-16T06:58:30;11.50;99.90
14471;DHT22;7321;50.802;4.336;2023-05-16T07:00:55;11.50;99.90
14471;DHT22;7321;50.802;4.336;2023-05-16T07:03:21;11.70;99.90
14471;DHT22;7321;50.802;4.336;2023-05-16T07:05:47;11.80;99.90
14471;DHT22;7321;50.802;4.336;2023-05-16T07:08:15;11.80;99.90
14471;DHT22;7321;50.802;4.336;2023-05-16T07:10:41;12.10;99.90
14471;DHT22;7321;50.802;4.336;2023-05-16T07:13:07;12.20;99.90
14471;DHT22;7321;50.802;4.336;2023-05-16T07:15:33;12.50;99.90
14471;DHT22;7321;50.802;4.336;2023-05-16T07:17:59;12.40;99.90
14471;DHT22;7321;50.802;4.336;2023-05-16T07:20:25;12.30;99.90
14471;DHT22;7321;50.802;4.336;2023-05-16T07:22:57;12.20;99.90
14471;DHT22;7321;50.802;4.336;2023-05-16T07:25:24;12.40;99.90
14471;DHT22;7321;50.802;4.336;2023-05-16T07:27:50;12.70;99.90
14471;DHT22;7321;50.802;4.336;2023-05-16T07:30:16;12.80;99.90
14471;DHT22;7321;50.802;4.336;2023-05-16T07:32:42;12.70;99.90
14471;DHT22;7321;50.802;4.336;2023-05-16T07:35:08;12.60;99.90
14471;DHT22;7321;50.802;4.336;2023-05-16T07:37:35;12.40;99.90
14471;DHT22;7321;50.802;4.336;2023-05-16T07:40:01;12.30;99.90
14471;DHT22;7321;50.802;4.336;2023-05-16T07:42:28;12.40;99.90
14471;DHT22;7321;50.802;4.336;2023-05-16T07:44:54;12.30;99.90
14471;DHT22;7321;50.802;4.336;2023-05-16T07:47:20;12.50;99.90
14471;DHT22;7321;50.802;4.336;2023-05-16T07:49:45;12.60;99.90
14471;DHT22;7321;50.802;4.336;2023-05-16T07:52:11;12.60;99.90
14471;DHT22;7321;50.802;4.336;2023-05-16T07:54:37;12.50;99.90
14471;DHT22;7321;50.802;4.336;2023-05-16T07:57:03;12.40;99.90
14471;DHT22;7321;50.802;4.336;2023-05-16T07:59:32;12.40;99.90
14471;DHT22;7321;50.802;4.336;2023-05-16T08:01:57;12.30;99.90
14471;DHT22;7321;50.802;4.336;2023-05-16T08:04:23;12.40;99.90
14471;DHT22;7321;50.802;4.336;2023-05-16T08:06:49;12.30;99.90
14471;DHT22;7321;50.802;4.336;2023-05-16T08:09:15;12.20;99.90
14471;DHT22;7321;50.802;4.336;2023-05-16T08:11:41;12.40;99.90
14471;DHT22;7321;50.802;4.336;2023-05-16T08:14:10;12.50;99.90
14471;DHT22;7321;50.802;4.336;2023-05-16T08:16:36;12.50;99.90
14471;DHT22;7321;50.802;4.336;2023-05-16T08:19:02;12.60;99.90
14471;DHT22;7321;50.802;4.336;2023-05-16T08:21:28;12.60;99.90
14471;DHT22;7321;50.802;4.336;2023-05-16T08:23:54;12.60;99.90
14471;DHT22;7321;50.802;4.336;2023-05-16T08:26:20;12.70;99.90
14471;DHT22;7321;50.802;4.336;2023-05-16T08:28:46;12.80;99.90
14471;DHT22;7321;50.802;4.336;2023-05-16T08:31:12;13.00;99.90
14471;DHT22;7321;50.802;4.336;2023-05-16T08:33:38;13.20;99.90
14471;DHT22;7321;50.802;4.336;2023-05-16T08:36:04;13.20;99.90
14471;DHT22;7321;50.802;4.336;2023-05-16T08:38:30;13.20;99.90
14471;DHT22;7321;50.802;4.336;2023-05-16T08:40:59;13.40;99.90
14471;DHT22;7321;50.802;4.336;2023-05-16T08:43:25;13.40;99.90
14471;DHT22;7321;50.802;4.336;2023-05-16T08:45:51;13.40;99.90
14471;DHT22;7321;50.802;4.336;2023-05-16T08:48:22;13.40;99.90
14471;DHT22;7321;50.802;4.336;2023-05-16T08:50:48;13.20;99.90
14471;DHT22;7321;50.802;4.336;2023-05-16T08:53:18;13.00;99.90
14471;DHT22;7321;50.802;4.336;2023-05-16T08:55:47;13.10;99.90
14471;DHT22;7321;50.802;4.336;2023-05-16T08:58:14;13.00;99.90
14471;DHT22;7321;50.802;4.336;2023-05-16T09:00:41;13.00;99.90
14471;DHT22;7321;50.802;4.336;2023-05-16T09:03:07;13.10;99.90
14471;DHT22;7321;50.802;4.336;2023-05-16T09:05:34;13.20;99.90
14471;DHT22;7321;50.802;4.336;2023-05-16T09:07:59;13.40;99.90
14471;DHT22;7321;50.802;4.336;2023-05-16T09:10:28;13.60;99.90
14471;DHT22;7321;50.802;4.336;2023-05-16T09:12:54;13.60;99.90
14471;DHT22;7321;50.802;4.336;2023-05-16T09:15:20;13.40;99.90
14471;DHT22;7321;50.802;4.336;2023-05-16T09:17:48;13.30;99.90
14471;DHT22;7321;50.802;4.336;2023-05-16T09:20:16;13.50;99.90
14471;DHT22;7321;50.802;4.336;2023-05-16T09:22:57;13.80;99.90
14471;DHT22;7321;50.802;4.336;2023-05-16T09:25:25;14.20;99.90
14471;DHT22;7321;50.802;4.336;2023-05-16T09:27:55;14.30;99.90
14471;DHT22;7321;50.802;4.336;2023-05-16T09:30:26;14.10;99.90
14471;DHT22;7321;50.802;4.336;2023-05-16T09:32:53;14.10;99.90
14471;DHT22;7321;50.802;4.336;2023-05-16T09:35:20;14.10;99.90
14471;DHT22;7321;50.802;4.336;2023-05-16T09:37:47;13.90;99.90
14471;DHT22;7321;50.802;4.336;2023-05-16T09:40:14;13.90;99.90
14471;DHT22;7321;50.802;4.336;2023-05-16T09:42:41;13.80;99.90
14471;DHT22;7321;50.802;4.336;2023-05-16T09:45:11;14.00;99.90
14471;DHT22;7321;50.802;4.336;2023-05-16T09:47:37;14.20;99.90
14471;DHT22;7321;50.802;4.336;2023-05-16T09:50:10;14.50;99.90
14471;DHT22;7321;50.802;4.336;2023-05-16T09:52:38;14.40;99.90
14471;DHT22;7321;50.802;4.336;2023-05-16T09:55:07;14.10;99.90
14471;DHT22;7321;50.802;4.336;2023-05-16T09:57:36;14.10;99.90
14471;DHT22;7321;50.802;4.336;2023-05-16T10:00:05;14.20;99.90
14471;DHT22;7321;50.802;4.336;2023-05-16T10:02:33;14.40;99.90
14471;DHT22;7321;50.802;4.336;2023-05-16T10:05:00;14.40;99.90
14471;DHT22;7321;50.802;4.336;2023-05-16T10:07:26;14.50;99.90
14471;DHT22;7321;50.802;4.336;2023-05-16T10:09:53;14.20;99.90
14471;DHT22;7321;50.802;4.336;2023-05-16T10:12:29;14.00;99.90
14471;DHT22;7321;50.802;4.336;2023-05-16T10:14:56;14.20;99.90
14471;DHT22;7321;50.802;4.336;2023-05-16T10:17:24;14.40;99.90
14471;DHT22;7321;50.802;4.336;2023-05-16T10:19:53;14.50;99.90
14471;DHT22;7321;50.802;4.336;2023-05-16T10:22:19;14.50;99.90
14471;DHT22;7321;50.802;4.336;2023-05-16T10:27:37;14.20;99.90
14471;DHT22;7321;50.802;4.336;2023-05-16T10:30:05;14.30;99.90
14471;DHT22;7321;50.802;4.336;2023-05-16T10:32:32;14.30;99.90
14471;DHT22;7321;50.802;4.336;2023-05-16T10:34:59;14.50;99.90
14471;DHT22;7321;50.802;4.336;2023-05-16T10:37:26;14.80;99.90
14471;DHT22;7321;50.802;4.336;2023-05-16T10:39:53;14.90;99.90
14471;DHT22;7321;50.802;4.336;2023-05-16T10:42:19;14.80;99.90
14471;DHT22;7321;50.802;4.336;2023-05-16T10:44:45;15.10;99.90
14471;DHT22;7321;50.802;4.336;2023-05-16T10:47:11;15.20;99.90
14471;DHT22;7321;50.802;4.336;2023-05-16T10:49:40;15.20;99.90
14471;DHT22;7321;50.802;4.336;2023-05-16T10:52:11;15.30;99.90
14471;DHT22;7321;50.802;4.336;2023-05-16T10:54:43;15.30;99.90
14471;DHT22;7321;50.802;4.336;2023-05-16T10:57:14;15.30;99.90
14471;DHT22;7321;50.802;4.336;2023-05-16T10:59:46;15.20;99.90
14471;DHT22;7321;50.802;4.336;2023-05-16T11:02:32;15.30;99.90
14471;DHT22;7321;50.802;4.336;2023-05-16T11:05:00;15.40;99.90
14471;DHT22;7321;50.802;4.336;2023-05-16T11:07:31;15.30;99.90
14471;DHT22;7321;50.802;4.336;2023-05-16T11:10:04;15.30;99.90
14471;DHT22;7321;50.802;4.336;2023-05-16T11:12:41;15.30;99.90
14471;DHT22;7321;50.802;4.336;2023-05-16T11:15:18;15.40;99.90
14471;DHT22;7321;50.802;4.336;2023-05-16T11:17:45;15.30;99.90
14471;DHT22;7321;50.802;4.336;2023-05-16T11:20:31;15.40;99.90
14471;DHT22;7321;50.802;4.336;2023-05-16T11:26:02;15.20;99.90
14471;DHT22;7321;50.802;4.336;2023-05-16T11:28:28;15.30;99.90
14471;DHT22;7321;50.802;4.336;2023-05-16T11:30:57;15.30;99.90
14471;DHT22;7321;50.802;4.336;2023-05-16T11:33:24;15.50;99.90
14471;DHT22;7321;50.802;4.336;2023-05-16T11:36:04;15.70;99.90
14471;DHT22;7321;50.802;4.336;2023-05-16T11:38:31;16.00;99.90
14471;DHT22;7321;50.802;4.336;2023-05-16T11:41:02;15.90;99.90
14471;DHT22;7321;50.802;4.336;2023-05-16T11:43:28;15.70;99.90
14471;DHT22;7321;50.802;4.336;2023-05-16T11:45:54;15.60;99.90
14471;DHT22;7321;50.802;4.336;2023-05-16T11:48:24;15.30;99.90
14471;DHT22;7321;50.802;4.336;2023-05-16T11:50:50;15.40;99.90
14471;DHT22;7321;50.802;4.336;2023-05-16T11:53:18;15.50;99.90
14471;DHT22;7321;50.802;4.336;2023-05-16T11:55:44;15.20;99.90
14471;DHT22;7321;50.802;4.336;2023-05-16T11:58:17;15.20;99.90
14471;DHT22;7321;50.802;4.336;2023-05-16T12:00:47;15.30;99.90
14471;DHT22;7321;50.802;4.336;2023-05-16T12:03:14;15.20;99.90
14471;DHT22;7321;50.802;4.336;2023-05-16T12:05:51;15.10;99.90
14471;DHT22;7321;50.802;4.336;2023-05-16T12:08:18;15.20;99.90
14471;DHT22;7321;50.802;4.336;2023-05-16T12:10:47;15.40;99.90
14471;DHT22;7321;50.802;4.336;2023-05-16T12:13:14;15.50;99.90
14471;DHT22;7321;50.802;4.336;2023-05-16T12:15:40;15.70;99.90
14471;DHT22;7321;50.802;4.336;2023-05-16T12:18:07;15.70;99.90
14471;DHT22;7321;50.802;4.336;2023-05-16T12:20:33;15.70;99.90
14471;DHT22;7321;50.802;4.336;2023-05-16T12:22:59;15.90;99.90
14471;DHT22;7321;50.802;4.336;2023-05-16T12:27:56;15.60;99.90
14471;DHT22;7321;50.802;4.336;2023-05-16T12:30:23;15.70;99.90
14471;DHT22;7321;50.802;4.336;2023-05-16T12:33:07;15.80;99.90
14471;DHT22;7321;50.802;4.336;2023-05-16T12:35:36;15.80;99.90
14471;DHT22;7321;50.802;4.336;2023-05-16T12:38:06;15.80;99.90
14471;DHT22;7321;50.802;4.336;2023-05-16T12:40:32;15.80;99.90
14471;DHT22;7321;50.802;4.336;2023-05-16T12:42:59;15.70;99.90
14471;DHT22;7321;50.802;4.336;2023-05-16T12:45:28;15.60;99.90
14471;DHT22;7321;50.802;4.336;2023-05-16T12:47:54;15.60;99.90
14471;DHT22;7321;50.802;4.336;2023-05-16T12:50:20;15.60;99.90
14471;DHT22;7321;50.802;4.336;2023-05-16T12:52:52;15.70;99.90
14471;DHT22;7321;50.802;4.336;2023-05-16T12:55:20;15.90;99.90
14471;DHT22;7321;50.802;4.336;2023-05-16T12:57:47;16.00;99.90
14471;DHT22;7321;50.802;4.336;2023-05-16T13:00:14;16.20;99.90
14471;DHT22;7321;50.802;4.336;2023-05-16T13:02:41;16.40;99.90
14471;DHT22;7321;50.802;4.336;2023-05-16T13:05:07;16.70;99.90
14471;DHT22;7321;50.802;4.336;2023-05-16T13:07:33;16.40;99.90
14471;DHT22;7321;50.802;4.336;2023-05-16T13:09:59;16.20;99.90
14471;DHT22;7321;50.802;4.336;2023-05-16T13:12:25;16.10;99.90
14471;DHT22;7321;50.802;4.336;2023-05-16T13:14:52;16.20;99.90
14471;DHT22;7321;50.802;4.336;2023-05-16T13:17:18;16.10;99.90
14471;DHT22;7321;50.802;4.336;2023-05-16T13:19:44;15.80;99.90
14471;DHT22;7321;50.802;4.336;2023-05-16T13:22:10;15.80;99.90
14471;DHT22;7321;50.802;4.336;2023-05-16T13:24:36;15.70;99.90
14471;DHT22;7321;50.802;4.336;2023-05-16T13:27:02;15.80;99.90
14471;DHT22;7321;50.802;4.336;2023-05-16T13:29:28;15.90;99.90
14471;DHT22;7321;50.802;4.336;2023-05-16T13:31:54;16.00;99.90
14471;DHT22;7321;50.802;4.336;2023-05-16T13:34:19;15.90;99.90
14471;DHT22;7321;50.802;4.336;2023-05-16T13:36:45;16.00;99.90
14471;DHT22;7321;50.802;4.336;2023-05-16T13:39:12;16.10;99.90
14471;DHT22;7321;50.802;4.336;2023-05-16T13:41:38;16.10;99.90
14471;DHT22;7321;50.802;4.336;2023-05-16T13:44:05;16.20;99.90
14471;DHT22;7321;50.802;4.336;2023-05-16T13:46:31;16.20;99.90
14471;DHT22;7321;50.802;4.336;2023-05-16T13:48:57;16.20;99.90
14471;DHT22;7321;50.802;4.336;2023-05-16T13:51:23;16.30;99.90
14471;DHT22;7321;50.802;4.336;2023-05-16T13:53:49;16.30;99.90
14471;DHT22;7321;50.802;4.336;2023-05-16T13:56:15;16.40;99.90
14471;DHT22;7321;50.802;4.336;2023-05-16T13:58:41;16.50;99.90
14471;DHT22;7321;50.802;4.336;2023-05-16T14:01:07;16.50;99.90
14471;DHT22;7321;50.802;4.336;2023-05-16T14:03:36;16.50;99.90
14471;DHT22;7321;50.802;4.336;2023-05-16T14:06:05;16.50;99.90
14471;DHT22;7321;50.802;4.336;2023-05-16T14:08:31;16.60;99.90
14471;DHT22;7321;50.802;4.336;2023-05-16T14:10:57;16.70;99.90
14471;DHT22;7321;50.802;4.336;2023-05-16T14:13:23;16.60;99.90
14471;DHT22;7321;50.802;4.336;2023-05-16T14:15:49;16.80;99.90
14471;DHT22;7321;50.802;4.336;2023-05-16T14:18:16;16.90;99.90
14471;DHT22;7321;50.802;4.336;2023-05-16T14:20:42;16.80;99.90
14471;DHT22;7321;50.802;4.336;2023-05-16T14:23:08;16.60;99.90
14471;DHT22;7321;50.802;4.336;2023-05-16T14:25:33;16.40;99.90
14471;DHT22;7321;50.802;4.336;2023-05-16T14:27:59;16.40;99.90
14471;DHT22;7321;50.802;4.336;2023-05-16T14:30:25;16.50;99.90
14471;DHT22;7321;50.802;4.336;2023-05-16T14:32:51;16.50;99.90
14471;DHT22;7321;50.802;4.336;2023-05-16T14:35:17;16.60;99.90
14471;DHT22;7321;50.802;4.336;2023-05-16T14:37:43;16.50;99.90
14471;DHT22;7321;50.802;4.336;2023-05-16T14:40:09;16.60;99.90
14471;DHT22;7321;50.802;4.336;2023-05-16T14:42:35;16.50;99.90
14471;DHT22;7321;50.802;4.336;2023-05-16T14:45:01;16.40;99.90
14471;DHT22;7321;50.802;4.336;2023-05-16T14:47:27;16.40;99.90
14471;DHT22;7321;50.802;4.336;2023-05-16T14:49:55;16.20;99.90
14471;DHT22;7321;50.802;4.336;2023-05-16T14:52:22;16.00;99.90
14471;DHT22;7321;50.802;4.336;2023-05-16T14:54:47;15.70;99.90
14471;DHT22;7321;50.802;4.336;2023-05-16T14:57:13;15.50;99.90
14471;DHT22;7321;50.802;4.336;2023-05-16T14:59:39;15.50;99.90
14471;DHT22;7321;50.802;4.336;2023-05-16T15:02:06;15.50;99.90
14471;DHT22;7321;50.802;4.336;2023-05-16T15:04:32;15.80;99.90
14471;DHT22;7321;50.802;4.336;2023-05-16T15:06:58;16.00;99.90
14471;DHT22;7321;50.802;4.336;2023-05-16T15:09:24;16.10;99.90
14471;DHT22;7321;50.802;4.336;2023-05-16T15:11:50;16.00;99.90
14471;DHT22;7321;50.802;4.336;2023-05-16T15:14:15;16.20;99.90
14471;DHT22;7321;50.802;4.336;2023-05-16T15:16:41;16.30;99.90
14471;DHT22;7321;50.802;4.336;2023-05-16T15:19:07;16.40;99.90
14471;DHT22;7321;50.802;4.336;2023-05-16T15:21:33;16.60;99.90
14471;DHT22;7321;50.802;4.336;2023-05-16T15:23:59;16.80;99.90
14471;DHT22;7321;50.802;4.336;2023-05-16T15:26:25;17.00;99.90
14471;DHT22;7321;50.802;4.336;2023-05-16T15:28:51;17.20;99.90
14471;DHT22;7321;50.802;4.336;2023-05-16T15:31:16;17.30;99.90
14471;DHT22;7321;50.802;4.336;2023-05-16T15:33:42;16.90;99.90
14471;DHT22;7321;50.802;4.336;2023-05-16T15:36:10;16.80;99.90
14471;DHT22;7321;50.802;4.336;2023-05-16T15:38:35;16.70;99.90
14471;DHT22;7321;50.802;4.336;2023-05-16T15:41:01;16.80;99.90
14471;DHT22;7321;50.802;4.336;2023-05-16T15:43:31;16.60;99.90
14471;DHT22;7321;50.802;4.336;2023-05-16T15:45:56;16.60;99.90
14471;DHT22;7321;50.802;4.336;2023-05-16T15:48:22;16.60;99.90
14471;DHT22;7321;50.802;4.336;2023-05-16T15:50:48;16.50;99.90
14471;DHT22;7321;50.802;4.336;2023-05-16T15:53:14;16.30;99.90
14471;DHT22;7321;50.802;4.336;2023-05-16T15:55:40;16.10;99.90
14471;DHT22;7321;50.802;4.336;2023-05-16T15:58:05;16.00;99.90
14471;DHT22;7321;50.802;4.336;2023-05-16T16:00:31;16.30;99.90
14471;DHT22;7321;50.802;4.336;2023-05-16T16:02:57;16.80;99.90
14471;DHT22;7321;50.802;4.336;2023-05-16T16:05:23;17.10;99.90
14471;DHT22;7321;50.802;4.336;2023-05-16T16:07:49;17.30;99.90
14471;DHT22;7321;50.802;4.336;2023-05-16T16:10:15;17.40;99.90
14471;DHT22;7321;50.802;4.336;2023-05-16T16:12:40;17.70;99.90